Time;durP1;ratioP1;P1;durP2;ratioP2;P2;SDS_P1;SDS_P2;PMS_P1;PMS_P2;Temp;Humidity;BMP_temperature;BMP_pressure;BME280_temperature;BME280_humidity;BME280_pressure;Samples;Min_cycle;Max_cycle;Signal;HPM_P1;HPM_P2
2022/07/12 00:00:10;;;;;;;2.15;1.40;;;;;;;;;;10406051;28;20041;-83
2022/07/12 00:05:30;;;;;;;1.20;1.10;;;;;;;;;;10399022;28;20037;-83
2022/07/12 00:10:33;;;;;;;1.48;1.20;;;;;;;;;;10397381;28;20057;-85
2022/07/12 00:15:34;;;;;;;1.48;1.38;;;;;;;;;;10423994;28;20056;-82
2022/07/12 00:20:34;;;;;;;1.48;1.35;;;;;;;;;;10378790;28;20105;-83
2022/07/12 00:25:35;;;;;;;1.40;1.30;;;;;;;;;;10376168;28;20045;-84
2022/07/12 00:30:42;;;;;;;1.40;1.30;;;;;;;;;;10406516;28;20076;-86
2022/07/12 00:35:49;;;;;;;3.72;1.30;;;;;;;;;;10402745;28;20098;-87
2022/07/12 00:41:13;;;;;;;2.77;1.40;;;;;;;;;;10399335;28;20062;-83
2022/07/12 00:46:24;;;;;;;1.30;1.20;;;;;;;;;;10350713;28;20041;-84
2022/07/12 00:51:25;;;;;;;1.17;1.08;;;;;;;;;;10391899;28;20040;-85
2022/07/12 00:56:28;;;;;;;1.40;1.30;;;;;;;;;;10383551;28;20124;-83
2022/07/12 01:01:31;;;;;;;1.60;1.50;;;;;;;;;;10372050;28;20042;-85
2022/07/12 01:06:57;;;;;;;1.48;1.38;;;;;;;;;;10400978;28;20028;-86
2022/07/12 01:12:22;;;;;;;1.60;1.50;;;;;;;;;;10409737;28;20053;-84
2022/07/12 01:18:04;;;;;;;1.83;1.73;;;;;;;;;;10426356;28;20109;-83
2022/07/12 01:23:05;;;;;;;1.60;1.50;;;;;;;;;;10364312;28;20108;-83
2022/07/12 01:28:05;;;;;;;1.98;1.50;;;;;;;;;;10375892;28;20068;-85
2022/07/12 01:33:08;;;;;;;2.03;1.60;;;;;;;;;;10374717;28;20065;-84
2022/07/12 01:38:12;;;;;;;2.00;1.50;;;;;;;;;;10395483;28;20056;-81
2022/07/12 01:43:14;;;;;;;1.48;1.38;;;;;;;;;;10370204;28;20101;-84
2022/07/12 01:48:14;;;;;;;2.35;1.33;;;;;;;;;;10384073;28;20037;-84
2022/07/12 01:53:16;;;;;;;1.60;1.50;;;;;;;;;;10362543;28;20454;-85
2022/07/12 01:58:23;;;;;;;1.73;1.60;;;;;;;;;;10385441;28;20287;-85
2022/07/12 02:03:24;;;;;;;2.30;1.63;;;;;;;;;;10375807;28;20090;-84
2022/07/12 02:08:33;;;;;;;2.67;2.10;;;;;;;;;;10415692;28;20054;-85
2022/07/12 02:13:35;;;;;;;2.60;1.90;;;;;;;;;;10405059;28;20119;-81
2022/07/12 02:18:40;;;;;;;2.05;1.70;;;;;;;;;;10431221;28;20478;-83
2022/07/12 02:23:40;;;;;;;2.05;1.65;;;;;;;;;;10403506;28;20052;-83
2022/07/12 02:28:41;;;;;;;2.90;1.70;;;;;;;;;;10392216;28;20102;-83
2022/07/12 02:33:41;;;;;;;1.60;1.50;;;;;;;;;;10409088;28;20265;-86
2022/07/12 02:39:13;;;;;;;2.63;1.88;;;;;;;;;;10408834;28;20069;-85
2022/07/12 02:44:15;;;;;;;2.30;1.90;;;;;;;;;;10369016;28;20042;-84
2022/07/12 02:49:43;;;;;;;2.40;1.80;;;;;;;;;;10400640;28;20034;-83
2022/07/12 02:54:45;;;;;;;2.10;1.90;;;;;;;;;;10367628;28;20033;-84
2022/07/12 02:59:45;;;;;;;1.95;1.75;;;;;;;;;;10328218;28;20046;-85
2022/07/12 03:04:53;;;;;;;1.92;1.70;;;;;;;;;;10381378;28;20065;-84
2022/07/12 03:09:54;;;;;;;1.83;1.65;;;;;;;;;;10391762;28;20050;-85
2022/07/12 03:15:04;;;;;;;2.22;1.80;;;;;;;;;;10361365;28;20050;-83
2022/07/12 03:20:15;;;;;;;1.88;1.63;;;;;;;;;;10399693;28;20148;-87
2022/07/12 03:25:48;;;;;;;;;;;;;;;;;;;;;
2022/07/12 03:30:52;;;;;;;1.90;1.70;;;;;;;;;;10407062;28;20038;-83
2022/07/12 03:35:53;;;;;;;1.80;1.70;;;;;;;;;;10400830;28;20105;-82
2022/07/12 03:41:02;;;;;;;2.17;1.90;;;;;;;;;;10397512;28;20512;-85
2022/07/12 03:46:03;;;;;;;2.03;1.83;;;;;;;;;;10384421;28;20042;-84
2022/07/12 03:51:04;;;;;;;2.05;1.85;;;;;;;;;;10338230;28;20899;-85
2022/07/12 03:56:05;;;;;;;2.20;2.00;;;;;;;;;;10395099;28;20127;-83
2022/07/12 04:01:25;;;;;;;2.45;2.20;;;;;;;;;;10380770;28;20133;-86
2022/07/12 04:06:26;;;;;;;2.47;2.28;;;;;;;;;;10424038;28;20058;-84
2022/07/12 04:11:26;;;;;;;3.42;2.35;;;;;;;;;;10407948;28;20017;-84
2022/07/12 04:16:29;;;;;;;4.93;2.60;;;;;;;;;;10389135;28;20067;-83
2022/07/12 04:21:44;;;;;;;3.55;2.83;;;;;;;;;;10387536;28;20740;-83
2022/07/12 04:26:51;;;;;;;3.13;2.58;;;;;;;;;;10383628;28;20029;-87
2022/07/12 04:32:16;;;;;;;;;;;;;;;;;;;;;
2022/07/12 04:37:22;;;;;;;2.83;2.60;;;;;;;;;;10369352;28;20069;-83
2022/07/12 04:42:25;;;;;;;3.78;2.72;;;;;;;;;;10392490;28;20041;-84
2022/07/12 04:47:27;;;;;;;3.40;2.47;;;;;;;;;;10398637;28;20041;-84
2022/07/12 04:52:29;;;;;;;3.00;2.58;;;;;;;;;;10380405;28;20038;-83
2022/07/12 04:57:29;;;;;;;3.53;2.95;;;;;;;;;;10358194;28;20053;-83
2022/07/12 05:02:30;;;;;;;3.50;3.20;;;;;;;;;;10370889;28;20047;-83
2022/07/12 05:07:31;;;;;;;3.35;2.80;;;;;;;;;;10363904;28;20304;-80
2022/07/12 05:12:37;;;;;;;3.17;2.60;;;;;;;;;;10397701;28;20072;-84
2022/07/12 05:17:38;;;;;;;3.17;2.88;;;;;;;;;;10385653;28;20351;-82
2022/07/12 05:22:43;;;;;;;4.18;3.17;;;;;;;;;;10393744;28;20049;-83
2022/07/12 05:27:46;;;;;;;4.47;3.10;;;;;;;;;;10405428;28;20057;-79
2022/07/12 05:32:49;;;;;;;15.93;11.20;;;;;;;;;;10383816;28;20048;-84
2022/07/12 05:37:52;;;;;;;4.57;3.15;;;;;;;;;;10391043;28;20696;-85
2022/07/12 05:42:52;;;;;;;4.72;3.33;;;;;;;;;;10397040;28;20121;-87
2022/07/12 05:47:53;;;;;;;3.78;3.08;;;;;;;;;;10397470;28;20053;-85
2022/07/12 05:58:23;;;;;;;3.97;3.42;;;;;;;;;;10375068;28;20060;-82
2022/07/12 06:03:25;;;;;;;4.15;3.75;;;;;;;;;;10383840;28;20497;-83
2022/07/12 06:08:25;;;;;;;4.30;3.50;;;;;;;;;;10389704;28;20097;-83
2022/07/12 06:13:27;;;;;;;7.55;4.70;;;;;;;;;;10384433;28;20049;-76
2022/07/12 06:18:29;;;;;;;4.15;3.42;;;;;;;;;;10365721;28;20081;-76
2022/07/12 06:23:30;;;;;;;3.75;3.40;;;;;;;;;;10369331;28;20045;-76
2022/07/12 06:28:30;;;;;;;5.03;3.90;;;;;;;;;;10366295;28;20049;-77
2022/07/12 06:33:31;;;;;;;4.00;3.60;;;;;;;;;;10364743;28;20457;-76
2022/07/12 06:38:32;;;;;;;3.30;2.80;;;;;;;;;;10408853;28;20054;-84
2022/07/12 06:43:34;;;;;;;3.70;3.40;;;;;;;;;;10394425;28;20401;-84
2022/07/12 06:48:34;;;;;;;3.13;2.78;;;;;;;;;;10373170;28;20115;-84
2022/07/12 06:53:34;;;;;;;3.27;2.60;;;;;;;;;;10385101;28;20037;-85
2022/07/12 06:58:35;;;;;;;3.45;2.50;;;;;;;;;;10369249;28;20289;-84
2022/07/12 07:03:42;;;;;;;3.38;2.88;;;;;;;;;;10366820;28;20042;-86
2022/07/12 07:08:45;;;;;;;4.53;3.90;;;;;;;;;;10381756;28;20033;-84
2022/07/12 07:13:46;;;;;;;6.00;5.10;;;;;;;;;;10382049;28;20093;-85
2022/07/12 07:19:26;;;;;;;3.83;3.40;;;;;;;;;;10357663;28;20065;-85
2022/07/12 07:24:36;;;;;;;3.50;2.95;;;;;;;;;;10402246;28;20043;-85
2022/07/12 07:35:14;;;;;;;3.08;2.75;;;;;;;;;;10376111;28;20110;-83
2022/07/12 07:40:15;;;;;;;3.05;2.85;;;;;;;;;;10406658;28;20118;-85
2022/07/12 07:45:21;;;;;;;3.05;2.75;;;;;;;;;;10388259;28;20045;-84
2022/07/12 07:50:33;;;;;;;2.53;2.33;;;;;;;;;;10366511;28;20073;-83
2022/07/12 07:55:34;;;;;;;2.63;2.42;;;;;;;;;;10408339;28;20041;-81
2022/07/12 08:00:34;;;;;;;2.63;2.22;;;;;;;;;;10417513;28;20104;-82
2022/07/12 08:05:42;;;;;;;8.32;5.72;;;;;;;;;;10411393;28;20049;-83
2022/07/12 08:10:45;;;;;;;4.90;2.60;;;;;;;;;;10408516;28;20048;-82
2022/07/12 08:15:46;;;;;;;2.40;2.17;;;;;;;;;;10432946;28;20060;-84
2022/07/12 08:20:46;;;;;;;2.30;1.92;;;;;;;;;;10421163;28;20046;-84
2022/07/12 08:25:47;;;;;;;2.57;2.27;;;;;;;;;;10367844;28;20053;-82
2022/07/12 08:30:48;;;;;;;3.17;1.98;;;;;;;;;;10405810;28;20301;-83
2022/07/12 08:35:49;;;;;;;2.15;1.88;;;;;;;;;;10433646;28;20523;-84
2022/07/12 08:40:52;;;;;;;2.80;1.88;;;;;;;;;;10432777;28;20144;-84
2022/07/12 08:46:07;;;;;;;2.72;2.53;;;;;;;;;;10390531;28;20056;-85
2022/07/12 08:51:12;;;;;;;2.75;1.88;;;;;;;;;;10417718;28;20036;-84
2022/07/12 08:56:30;;;;;;;24.42;18.65;;;;;;;;;;10385563;28;20133;-82
2022/07/12 09:01:41;;;;;;;1.23;1.10;;;;;;;;;;10382847;28;20389;-83
2022/07/12 09:06:42;;;;;;;1.45;1.10;;;;;;;;;;10386390;28;20038;-85
2022/07/12 09:11:46;;;;;;;1.30;1.20;;;;;;;;;;10397186;28;20038;-82
2022/07/12 09:17:13;;;;;;;0.95;0.90;;;;;;;;;;10365563;28;20057;-83
2022/07/12 09:22:20;;;;;;;1.17;1.08;;;;;;;;;;10368857;28;20045;-82
2022/07/12 09:27:26;;;;;;;2.40;1.50;;;;;;;;;;10374490;28;20110;-83
2022/07/12 09:37:46;;;;;;;1.45;1.30;;;;;;;;;;10351174;28;20472;-82
2022/07/12 09:42:47;;;;;;;3.97;3.13;;;;;;;;;;10370328;28;20117;-85
2022/07/12 09:47:53;;;;;;;1.50;1.10;;;;;;;;;;10372739;28;20137;-83
2022/07/12 09:53:05;;;;;;;2.10;1.20;;;;;;;;;;10381105;28;20062;-85
2022/07/12 09:58:23;;;;;;;2.60;2.40;;;;;;;;;;10372657;28;20053;-84
2022/07/12 10:03:24;;;;;;;2.15;1.95;;;;;;;;;;10364452;28;20053;-79
2022/07/12 10:08:25;;;;;;;1.38;1.20;;;;;;;;;;10380433;28;20454;-76
2022/07/12 10:13:25;;;;;;;1.33;0.80;;;;;;;;;;10369222;28;20049;-76
2022/07/12 10:18:26;;;;;;;1.00;0.90;;;;;;;;;;10384791;28;20046;-85
2022/07/12 10:23:29;;;;;;;1.38;1.10;;;;;;;;;;10361782;28;20096;-76
2022/07/12 10:28:52;;;;;;;2.80;2.58;;;;;;;;;;10376286;28;20037;-74
2022/07/12 10:34:10;;;;;;;2.50;2.15;;;;;;;;;;10358199;28;20026;-76
2022/07/12 10:39:13;;;;;;;1.20;1.10;;;;;;;;;;10370470;28;20416;-76
2022/07/12 10:44:32;;;;;;;4.05;1.98;;;;;;;;;;10377208;28;20587;-76
2022/07/12 10:49:33;;;;;;;1.05;0.90;;;;;;;;;;10365922;28;20377;-79
2022/07/12 10:54:34;;;;;;;0.93;0.90;;;;;;;;;;10381979;28;20129;-79
2022/07/12 10:59:35;;;;;;;1.13;0.80;;;;;;;;;;10376597;28;20054;-76
2022/07/12 11:04:35;;;;;;;1.30;1.20;;;;;;;;;;10374968;28;20034;-77
2022/07/12 11:09:37;;;;;;;1.60;1.00;;;;;;;;;;10347501;28;20046;-76
2022/07/12 11:14:37;;;;;;;0.90;0.70;;;;;;;;;;10367847;28;20283;-77
2022/07/12 11:19:39;;;;;;;1.00;0.90;;;;;;;;;;10356668;28;20289;-77
2022/07/12 11:24:40;;;;;;;;;;;;;;;;;;10371351;28;20841;-75
2022/07/12 11:29:55;;;;;;;1.20;0.90;;;;;;;;;;10362489;28;19919;-76
2022/07/12 11:34:56;;;;;;;1.38;0.85;;;;;;;;;;10359146;28;20130;-83
2022/07/12 11:39:56;;;;;;;1.60;0.98;;;;;;;;;;10367572;28;20156;-84
2022/07/12 11:44:57;;;;;;;1.55;0.93;;;;;;;;;;10373041;28;20069;-76
2022/07/12 11:49:57;;;;;;;0.90;0.90;;;;;;;;;;10372003;28;20046;-77
2022/07/12 11:55:00;;;;;;;1.17;1.07;;;;;;;;;;10350411;28;20315;-76
2022/07/12 12:00:14;;;;;;;1.70;1.00;;;;;;;;;;10362358;28;20050;-77
2022/07/12 12:05:14;;;;;;;0.90;0.88;;;;;;;;;;10368937;28;20402;-76
2022/07/12 12:10:15;;;;;;;0.98;0.90;;;;;;;;;;10360968;28;20506;-78
2022/07/12 12:15:27;;;;;;;1.67;0.90;;;;;;;;;;10367058;28;20046;-79
2022/07/12 12:20:33;;;;;;;1.00;0.90;;;;;;;;;;10377657;28;20046;-76
2022/07/12 12:25:34;;;;;;;1.05;0.93;;;;;;;;;;10366591;28;20048;-79
2022/07/12 12:30:35;;;;;;;2.15;1.00;;;;;;;;;;10367825;28;20096;-77
2022/07/12 12:35:37;;;;;;;1.85;0.93;;;;;;;;;;10363256;28;20392;-77
2022/07/12 12:40:38;;;;;;;0.95;0.90;;;;;;;;;;10366410;28;20061;-76
2022/07/12 12:45:54;;;;;;;1.37;1.27;;;;;;;;;;10360094;28;20453;-78
2022/07/12 12:51:06;;;;;;;0.85;0.82;;;;;;;;;;10363690;28;20041;-78
2022/07/12 12:56:10;;;;;;;1.25;0.90;;;;;;;;;;10370110;28;20041;-77
2022/07/12 13:01:10;;;;;;;1.33;0.90;;;;;;;;;;10393561;28;20731;-80
2022/07/12 13:06:11;;;;;;;1.27;0.70;;;;;;;;;;10353359;28;20125;-78
2022/07/12 13:11:22;;;;;;;1.43;1.00;;;;;;;;;;10366061;28;20045;-77
2022/07/12 13:16:22;;;;;;;0.98;0.88;;;;;;;;;;10371873;28;20034;-79
2022/07/12 13:21:22;;;;;;;1.77;0.90;;;;;;;;;;10359474;28;20053;-78
2022/07/12 13:26:23;;;;;;;0.70;0.70;;;;;;;;;;10365671;28;20041;-76
2022/07/12 13:31:24;;;;;;;0.80;0.80;;;;;;;;;;10357902;28;20072;-77
2022/07/12 13:36:25;;;;;;;1.25;0.80;;;;;;;;;;10363174;28;20045;-77
2022/07/12 13:41:26;;;;;;;1.50;0.80;;;;;;;;;;10360236;28;20401;-80
2022/07/12 13:46:26;;;;;;;0.70;0.70;;;;;;;;;;10361881;28;20041;-77
2022/07/12 13:51:27;;;;;;;1.02;0.70;;;;;;;;;;10359094;28;20363;-77
2022/07/12 13:56:28;;;;;;;0.73;0.70;;;;;;;;;;10364624;28;20058;-82
2022/07/12 14:01:28;;;;;;;1.17;0.70;;;;;;;;;;10372495;28;20113;-75
2022/07/12 14:06:30;;;;;;;1.10;0.80;;;;;;;;;;10375062;28;20436;-76
2022/07/12 14:11:30;;;;;;;;;;;;;;;;;;10375394;28;20038;-78
2022/07/12 14:16:31;;;;;;;1.05;0.95;;;;;;;;;;10393950;28;20680;-79
2022/07/12 14:21:31;;;;;;;0.70;0.70;;;;;;;;;;10398723;28;20045;-79
2022/07/12 14:26:35;;;;;;;0.83;0.80;;;;;;;;;;10368131;28;20137;-78
2022/07/12 14:31:35;;;;;;;0.70;0.70;;;;;;;;;;10365684;28;20434;-78
2022/07/12 14:36:36;;;;;;;1.53;0.90;;;;;;;;;;10362528;28;20041;-78
2022/07/12 14:41:36;;;;;;;1.77;0.70;;;;;;;;;;10377126;28;20049;-78
2022/07/12 14:46:37;;;;;;;0.90;0.70;;;;;;;;;;10378505;28;20049;-78
2022/07/12 14:51:37;;;;;;;0.70;0.70;;;;;;;;;;10352108;28;20050;-78
2022/07/12 14:56:38;;;;;;;3.10;2.80;;;;;;;;;;10377581;28;20050;-77
2022/07/12 15:01:38;;;;;;;1.23;1.13;;;;;;;;;;10388791;28;20125;-78
2022/07/12 15:06:39;;;;;;;1.02;0.90;;;;;;;;;;10394297;28;20042;-77
2022/07/12 15:11:40;;;;;;;2.97;1.00;;;;;;;;;;10386674;28;20038;-76
2022/07/12 15:16:41;;;;;;;1.10;1.00;;;;;;;;;;10384230;28;20150;-77
2022/07/12 15:21:41;;;;;;;1.27;0.90;;;;;;;;;;10398119;28;20060;-78
2022/07/12 15:26:42;;;;;;;1.53;1.10;;;;;;;;;;10382019;28;20124;-79
2022/07/12 15:31:44;;;;;;;0.80;0.80;;;;;;;;;;10370033;28;20042;-78
2022/07/12 15:36:44;;;;;;;0.80;0.80;;;;;;;;;;10371493;28;20120;-76
2022/07/12 15:41:45;;;;;;;1.23;0.70;;;;;;;;;;10365633;28;20041;-80
2022/07/12 15:46:45;;;;;;;0.80;0.80;;;;;;;;;;10353207;28;20116;-74
2022/07/12 15:57:05;;;;;;;0.80;0.80;;;;;;;;;;10352498;28;20378;-72
2022/07/12 16:02:06;;;;;;;3.87;3.27;;;;;;;;;;10366941;28;20046;-75
2022/07/12 16:07:06;;;;;;;0.87;0.87;;;;;;;;;;10367530;28;20157;-79
2022/07/12 16:12:08;;;;;;;23.73;21.57;;;;;;;;;;10393413;28;20054;-82
2022/07/12 16:17:09;;;;;;;5.55;5.05;;;;;;;;;;10406296;28;20035;-83
2022/07/12 16:22:12;;;;;;;133.27;120.75;;;;;;;;;;10387080;28;20064;-78
2022/07/12 16:27:12;;;;;;;;;;;;;;;;;;10386166;28;20052;-82
2022/07/12 16:32:12;;;;;;;1.20;1.10;;;;;;;;;;10346507;28;19920;-81
2022/07/12 16:37:13;;;;;;;0.70;0.70;;;;;;;;;;10393344;28;20048;-81
2022/07/12 16:42:14;;;;;;;1.30;1.20;;;;;;;;;;10404590;28;20052;-83
2022/07/12 16:47:14;;;;;;;1.17;1.00;;;;;;;;;;10414644;28;20117;-83
2022/07/12 16:52:17;;;;;;;0.90;0.90;;;;;;;;;;10392309;28;20034;-83
2022/07/12 16:57:17;;;;;;;0.77;0.77;;;;;;;;;;10376796;28;20050;-82
2022/07/12 17:02:18;;;;;;;1.27;1.17;;;;;;;;;;10371913;28;20046;-81
2022/07/12 17:07:18;;;;;;;1.67;1.00;;;;;;;;;;10393223;28;20095;-83
2022/07/12 17:12:19;;;;;;;1.30;1.20;;;;;;;;;;10413191;28;20081;-83
2022/07/12 17:17:19;;;;;;;1.20;1.10;;;;;;;;;;10406852;28;20113;-82
2022/07/12 17:22:25;;;;;;;3.28;2.67;;;;;;;;;;10362920;28;20094;-83
2022/07/12 17:27:27;;;;;;;1.70;1.40;;;;;;;;;;10422282;28;20029;-83
2022/07/12 17:32:27;;;;;;;1.38;1.20;;;;;;;;;;10413527;28;20117;-79
2022/07/12 17:37:28;;;;;;;1.07;0.97;;;;;;;;;;10418626;28;20049;-79
2022/07/12 17:42:30;;;;;;;2.80;2.60;;;;;;;;;;10421911;28;20103;-81
2022/07/12 17:47:35;;;;;;;2.60;2.40;;;;;;;;;;10422292;28;20096;-82
2022/07/12 17:52:39;;;;;;;24.15;21.88;;;;;;;;;;10384394;28;20113;-81
2022/07/12 18:03:02;;;;;;;2.53;2.20;;;;;;;;;;10380600;28;20061;-80
2022/07/12 18:08:03;;;;;;;43.38;14.23;;;;;;;;;;10371953;28;20046;-77
2022/07/12 18:18:25;;;;;;;2.72;2.15;;;;;;;;;;10423073;28;20050;-82
2022/07/12 18:23:26;;;;;;;4.55;3.10;;;;;;;;;;10450430;23;20157;-87
2022/07/12 18:28:47;;;;;;;8.23;6.20;;;;;;;;;;10332549;28;20046;-87
2022/07/12 18:39:16;;;;;;;6.15;5.50;;;;;;;;;;10433725;23;20339;-83
2022/07/12 18:44:38;;;;;;;6.38;4.80;;;;;;;;;;10412085;28;20042;-83
2022/07/12 18:50:26;;;;;;;7.82;6.82;;;;;;;;;;10369204;28;20085;-84
2022/07/12 18:55:27;;;;;;;8.27;7.30;;;;;;;;;;10580820;23;20071;-85
2022/07/12 19:00:28;;;;;;;9.77;8.70;;;;;;;;;;10846292;22;20016;-84
2022/07/12 19:05:44;;;;;;;9.40;6.90;;;;;;;;;;10428002;28;20089;-83
2022/07/12 19:10:54;;;;;;;6.68;5.97;;;;;;;;;;10446870;28;20037;-83
2022/07/12 19:15:55;;;;;;;6.63;5.35;;;;;;;;;;10449267;28;20143;-82
2022/07/12 19:20:56;;;;;;;8.80;6.10;;;;;;;;;;10478953;28;20061;-83
2022/07/12 19:32:08;;;;;;;6.00;5.40;;;;;;;;;;10456633;28;20059;-84
2022/07/12 19:37:38;;;;;;;5.93;4.70;;;;;;;;;;10486206;28;20044;-85
2022/07/12 19:42:47;;;;;;;4.70;4.20;;;;;;;;;;10820104;22;20057;-82
2022/07/12 19:48:43;;;;;;;;;;;;;;;;;;;;;
2022/07/12 19:53:44;;;;;;;6.03;4.63;;;;;;;;;;10371283;28;20050;-82
2022/07/12 19:58:47;;;;;;;3.50;3.20;;;;;;;;;;10390918;28;20056;-83
2022/07/12 20:03:54;;;;;;;5.95;4.30;;;;;;;;;;10381038;28;20034;-84
2022/07/12 20:09:11;;;;;;;4.60;4.00;;;;;;;;;;10373838;28;20126;-83
2022/07/12 20:14:23;;;;;;;7.30;5.15;;;;;;;;;;10397374;28;20057;-84
2022/07/12 20:19:27;;;;;;;4.75;4.18;;;;;;;;;;10388448;28;20073;-83
2022/07/12 20:24:29;;;;;;;3.85;2.92;;;;;;;;;;10644695;23;20129;-83
2022/07/12 20:29:33;;;;;;;5.45;3.92;;;;;;;;;;10398952;28;20042;-83
2022/07/12 20:34:33;;;;;;;4.90;3.50;;;;;;;;;;10382037;28;20026;-83
2022/07/12 20:39:38;;;;;;;3.60;3.30;;;;;;;;;;10377691;28;20445;-83
2022/07/12 20:44:45;;;;;;;4.75;4.00;;;;;;;;;;10382665;28;20278;-83
2022/07/12 20:49:48;;;;;;;4.25;3.72;;;;;;;;;;10396618;28;20025;-85
2022/07/12 20:54:49;;;;;;;5.93;4.20;;;;;;;;;;10343413;28;20037;-83
2022/07/12 20:59:58;;;;;;;6.68;4.20;;;;;;;;;;10366766;28;20058;-83
2022/07/12 21:05:11;;;;;;;4.80;3.95;;;;;;;;;;10363018;28;20077;-83
2022/07/12 21:10:12;;;;;;;5.03;4.30;;;;;;;;;;10411805;28;20057;-85
2022/07/12 21:15:13;;;;;;;5.05;4.43;;;;;;;;;;10453672;28;20048;-83
2022/07/12 21:20:18;;;;;;;4.10;3.70;;;;;;;;;;10442375;28;20132;-82
2022/07/12 21:25:19;;;;;;;;;;;;;;;;;;10422819;28;20041;-82
2022/07/12 21:30:25;;;;;;;4.70;3.60;;;;;;;;;;10438755;28;19947;-83
2022/07/12 21:35:27;;;;;;;3.63;3.33;;;;;;;;;;10421304;28;20036;-83
2022/07/12 21:40:28;;;;;;;6.20;4.17;;;;;;;;;;10475109;28;20029;-84
2022/07/12 21:45:31;;;;;;;3.78;3.42;;;;;;;;;;10449900;28;20037;-82
2022/07/12 21:50:32;;;;;;;4.65;4.15;;;;;;;;;;10454005;28;20049;-83
2022/07/12 21:55:35;;;;;;;4.80;3.40;;;;;;;;;;10437926;28;20036;-85
2022/07/12 22:00:35;;;;;;;4.30;2.97;;;;;;;;;;10444173;28;20048;-83
2022/07/12 22:05:41;;;;;;;3.35;3.05;;;;;;;;;;10443723;28;20041;-86
2022/07/12 22:10:50;;;;;;;3.70;2.80;;;;;;;;;;10436872;28;20049;-86
2022/07/12 22:15:59;;;;;;;2.70;2.50;;;;;;;;;;10448846;28;20048;-87
2022/07/12 22:21:09;;;;;;;3.75;3.33;;;;;;;;;;10460107;28;20065;-84
2022/07/12 22:26:37;;;;;;;3.40;3.10;;;;;;;;;;10473271;28;20014;-87
2022/07/12 22:31:49;;;;;;;4.18;3.05;;;;;;;;;;10469827;28;20140;-86
2022/07/12 22:37:33;;;;;;;3.33;3.03;;;;;;;;;;10497112;28;20055;-86
2022/07/12 22:42:49;;;;;;;3.50;3.20;;;;;;;;;;10495182;28;20100;-83
2022/07/12 22:47:49;;;;;;;3.40;3.10;;;;;;;;;;10481358;28;20043;-88
2022/07/12 22:53:31;;;;;;;;;;;;;;;;;;;;;
2022/07/12 22:58:38;;;;;;;3.47;3.15;;;;;;;;;;10340629;28;20046;-87
2022/07/12 23:03:40;;;;;;;3.30;3.10;;;;;;;;;;10440450;28;20049;-85
2022/07/12 23:08:48;;;;;;;3.60;2.92;;;;;;;;;;10477043;28;20122;-88
2022/07/12 23:14:19;;;;;;;2.80;2.60;;;;;;;;;;10465490;28;20048;-86
2022/07/12 23:19:57;;;;;;;3.33;3.13;;;;;;;;;;10484899;28;20033;-85
2022/07/12 23:25:16;;;;;;;4.45;3.47;;;;;;;;;;10489040;28;20054;-84
2022/07/12 23:30:22;;;;;;;3.17;2.90;;;;;;;;;;10478575;28;20177;-85
2022/07/12 23:35:26;;;;;;;3.30;3.05;;;;;;;;;;10478968;28;20052;-82
2022/07/12 23:40:29;;;;;;;4.47;3.40;;;;;;;;;;10452889;28;20479;-83
2022/07/12 23:45:40;;;;;;;3.85;3.53;;;;;;;;;;10462242;28;20060;-82
2022/07/12 23:50:48;;;;;;;3.20;3.00;;;;;;;;;;10455362;28;20479;-83
2022/07/12 23:55:50;;;;;;;3.83;3.53;;;;;;;;;;10479788;28;20056;-81
